Time;durP1;ratioP1;P1;durP2;ratioP2;P2;SDS_P1;SDS_P2;PMS_P1;PMS_P2;Temp;Humidity;BMP_temperature;BMP_pressure;BME280_temperature;BME280_humidity;BME280_pressure;Samples;Min_cycle;Max_cycle;Signal;HPM_P1;HPM_P2
2022/06/21 00:01:18;;;;;;;0.20;0.20;;;;;;;;;;5057478;28;20038;-86
2022/06/21 00:03:44;;;;;;;0.10;0.10;;;;;;;;;;5042319;28;20075;-86
2022/06/21 00:06:13;;;;;;;0.10;0.10;;;;;;;;;;5037335;28;20047;-86
2022/06/21 00:08:40;;;;;;;0.20;0.20;;;;;;;;;;5052095;28;20044;-86
2022/06/21 00:11:35;;;;;;;0.20;0.20;;;;;;;;;;5041098;28;20041;-86
2022/06/21 00:14:01;;;;;;;0.10;0.10;;;;;;;;;;5028939;28;20036;-85
2022/06/21 00:16:29;;;;;;;0.10;0.10;;;;;;;;;;5051673;28;20499;-86
2022/06/21 00:18:55;;;;;;;0.10;0.10;;;;;;;;;;5041378;28;20306;-86
2022/06/21 00:21:27;;;;;;;0.03;0.03;;;;;;;;;;5040615;28;20119;-86
2022/06/21 00:23:54;;;;;;;0.10;0.10;;;;;;;;;;5040758;28;20421;-86
2022/06/21 00:26:21;;;;;;;0.10;0.10;;;;;;;;;;5041268;28;20464;-86
2022/06/21 00:28:47;;;;;;;0.17;0.17;;;;;;;;;;5041355;28;20469;-85
2022/06/21 00:31:18;;;;;;;0.10;0.10;;;;;;;;;;5033876;28;20448;-86
2022/06/21 00:33:44;;;;;;;0.25;0.25;;;;;;;;;;5054199;28;20036;-86
2022/06/21 00:36:30;;;;;;;0.10;0.10;;;;;;;;;;5040823;28;20059;-86
2022/06/21 00:38:58;;;;;;;0.20;0.20;;;;;;;;;;5054604;28;20044;-85
2022/06/21 00:41:43;;;;;;;0.10;0.10;;;;;;;;;;5040958;28;20040;-86
2022/06/21 00:44:13;;;;;;;0.10;0.10;;;;;;;;;;5027226;28;20390;-86
2022/06/21 00:46:42;;;;;;;0.10;0.10;;;;;;;;;;5040854;28;20040;-86
2022/06/21 00:49:14;;;;;;;0.20;0.20;;;;;;;;;;5051862;28;20044;-86
2022/06/21 00:51:41;;;;;;;0.10;0.10;;;;;;;;;;5040648;28;20410;-85
2022/06/21 00:54:14;;;;;;;0.13;0.13;;;;;;;;;;5040183;28;20068;-85
2022/06/21 00:56:43;;;;;;;0.10;0.10;;;;;;;;;;5056796;28;20407;-86
2022/06/21 00:59:20;;;;;;;0.10;0.10;;;;;;;;;;5036156;28;20463;-86
2022/06/21 01:01:47;;;;;;;0.10;0.10;;;;;;;;;;5057172;28;20410;-86
2022/06/21 01:04:33;;;;;;;0.10;0.10;;;;;;;;;;5039199;28;20051;-86
2022/06/21 01:07:00;;;;;;;0.10;0.10;;;;;;;;;;5018800;28;20052;-85
2022/06/21 01:09:31;;;;;;;0.08;0.08;;;;;;;;;;5037198;28;20036;-85
2022/06/21 01:12:00;;;;;;;0.10;0.10;;;;;;;;;;5056492;28;20052;-85
2022/06/21 01:14:27;;;;;;;0.10;0.10;;;;;;;;;;5040286;28;20036;-85
2022/06/21 01:16:54;;;;;;;0.10;0.10;;;;;;;;;;5040782;28;20037;-85
2022/06/21 01:19:27;;;;;;;0.10;0.10;;;;;;;;;;5039579;28;20043;-84
2022/06/21 01:21:54;;;;;;;0.05;0.05;;;;;;;;;;5030203;28;20524;-84
2022/06/21 01:24:23;;;;;;;0.30;0.30;;;;;;;;;;5038354;28;20577;-86
2022/06/21 01:26:50;;;;;;;0.10;0.10;;;;;;;;;;5037576;28;20410;-87
2022/06/21 01:32:38;;;;;;;0.10;0.10;;;;;;;;;;5061239;28;20060;-86
2022/06/21 01:35:18;;;;;;;0.15;0.15;;;;;;;;;;5035764;28;20060;-84
2022/06/21 01:37:44;;;;;;;0.20;0.20;;;;;;;;;;5057126;28;20393;-85
2022/06/21 01:40:13;;;;;;;0.10;0.10;;;;;;;;;;5039909;28;20071;-85
2022/06/21 01:42:41;;;;;;;0.10;0.10;;;;;;;;;;5040581;28;20044;-86
2022/06/21 01:45:10;;;;;;;0.10;0.10;;;;;;;;;;5031639;28;20079;-86
2022/06/21 01:48:09;;;;;;;0.10;0.10;;;;;;;;;;5039631;28;20049;-86
2022/06/21 01:50:35;;;;;;;0.10;0.10;;;;;;;;;;5018175;28;20048;-86
2022/06/21 01:53:02;;;;;;;0.10;0.10;;;;;;;;;;5039849;28;20036;-85
2022/06/21 01:55:35;;;;;;;0.10;0.10;;;;;;;;;;5039591;28;20032;-85
2022/06/21 01:58:02;;;;;;;0.20;0.20;;;;;;;;;;5036782;28;20405;-85
2022/06/21 02:00:31;;;;;;;0.10;0.10;;;;;;;;;;5040896;28;20039;-87
2022/06/21 02:03:00;;;;;;;0.20;0.20;;;;;;;;;;5024200;28;20093;-85
2022/06/21 02:05:28;;;;;;;0.10;0.10;;;;;;;;;;5045453;28;20070;-84
2022/06/21 02:07:56;;;;;;;0.10;0.10;;;;;;;;;;5055936;28;20036;-84
2022/06/21 02:10:28;;;;;;;0.20;0.20;;;;;;;;;;5036694;28;20052;-85
2022/06/21 02:13:06;;;;;;;0.20;0.20;;;;;;;;;;5042880;28;20524;-84
2022/06/21 02:15:45;;;;;;;0.30;0.30;;;;;;;;;;5061490;28;20046;-85
2022/06/21 02:18:12;;;;;;;0.17;0.17;;;;;;;;;;5043164;28;20045;-85
2022/06/21 02:20:42;;;;;;;0.10;0.10;;;;;;;;;;5043816;28;20445;-85
2022/06/21 02:23:12;;;;;;;0.20;0.20;;;;;;;;;;5041194;28;20077;-84
2022/06/21 02:25:40;;;;;;;0.10;0.10;;;;;;;;;;5043541;28;20128;-85
2022/06/21 02:28:07;;;;;;;0.30;0.30;;;;;;;;;;5044449;28;20605;-84
2022/06/21 02:30:36;;;;;;;0.20;0.20;;;;;;;;;;5069800;28;20120;-85
2022/06/21 02:33:03;;;;;;;0.20;0.20;;;;;;;;;;5036367;28;20417;-85
2022/06/21 02:35:38;;;;;;;0.20;0.20;;;;;;;;;;5043241;28;20390;-85
2022/06/21 02:38:06;;;;;;;0.10;0.10;;;;;;;;;;5042676;28;20040;-84
2022/06/21 02:40:41;;;;;;;0.20;0.20;;;;;;;;;;5043596;28;20048;-84
2022/06/21 02:43:07;;;;;;;;;;;;;;;;;;5044365;28;20052;-85
2022/06/21 02:45:36;;;;;;;0.20;0.20;;;;;;;;;;5029253;28;20282;-86
2022/06/21 02:48:05;;;;;;;0.20;0.20;;;;;;;;;;5043190;28;20070;-85
2022/06/21 02:50:43;;;;;;;0.20;0.20;;;;;;;;;;5060356;28;20083;-86
2022/06/21 02:53:32;;;;;;;0.20;0.20;;;;;;;;;;5057581;28;20521;-85
2022/06/21 02:56:10;;;;;;;0.20;0.20;;;;;;;;;;5033189;28;20048;-86
2022/06/21 02:58:40;;;;;;;0.20;0.20;;;;;;;;;;5032666;28;20045;-86
2022/06/21 03:01:12;;;;;;;0.10;0.10;;;;;;;;;;5042737;28;20039;-86
2022/06/21 03:03:38;;;;;;;0.30;0.30;;;;;;;;;;5023795;28;20081;-85
2022/06/21 03:06:06;;;;;;;0.10;0.10;;;;;;;;;;5070118;28;20412;-86
2022/06/21 03:08:34;;;;;;;0.20;0.20;;;;;;;;;;5035270;28;20043;-85
2022/06/21 03:11:00;;;;;;;0.30;0.30;;;;;;;;;;5043253;28;20094;-85
2022/06/21 03:13:28;;;;;;;0.20;0.20;;;;;;;;;;5055621;28;20045;-85
2022/06/21 03:15:58;;;;;;;0.20;0.20;;;;;;;;;;5026987;28;20048;-85
2022/06/21 03:18:25;;;;;;;0.20;0.20;;;;;;;;;;5058923;28;20090;-85
2022/06/21 03:20:52;;;;;;;0.20;0.20;;;;;;;;;;5035777;28;20045;-85
2022/06/21 03:23:19;;;;;;;0.10;0.10;;;;;;;;;;5041084;28;20049;-85
2022/06/21 03:25:47;;;;;;;0.20;0.20;;;;;;;;;;5042835;28;20051;-85
2022/06/21 03:28:33;;;;;;;0.20;0.20;;;;;;;;;;5041716;28;20037;-84
2022/06/21 03:31:18;;;;;;;0.20;0.20;;;;;;;;;;5032897;28;20101;-85
2022/06/21 03:33:49;;;;;;;0.20;0.20;;;;;;;;;;5032790;28;20500;-86
2022/06/21 03:36:17;;;;;;;0.20;0.20;;;;;;;;;;5032462;28;20052;-85
2022/06/21 03:38:46;;;;;;;0.17;0.17;;;;;;;;;;5026237;28;20040;-85
2022/06/21 03:44:02;;;;;;;0.10;0.10;;;;;;;;;;5058104;28;20040;-86
2022/06/21 03:46:33;;;;;;;0.20;0.20;;;;;;;;;;5041246;28;20086;-83
2022/06/21 03:49:05;;;;;;;0.20;0.20;;;;;;;;;;5042095;28;20044;-86
2022/06/21 03:51:36;;;;;;;0.10;0.10;;;;;;;;;;5058595;28;20045;-85
2022/06/21 03:54:19;;;;;;;0.20;0.20;;;;;;;;;;5041697;28;20059;-85
2022/06/21 03:57:01;;;;;;;0.20;0.20;;;;;;;;;;5036326;28;20036;-84
2022/06/21 03:59:46;;;;;;;0.20;0.20;;;;;;;;;;5038189;28;20047;-84
2022/06/21 04:02:14;;;;;;;0.10;0.10;;;;;;;;;;5040570;28;20098;-86
2022/06/21 04:04:45;;;;;;;0.10;0.10;;;;;;;;;;5037645;28;20036;-83
2022/06/21 04:07:11;;;;;;;0.10;0.10;;;;;;;;;;5048614;28;20127;-84
2022/06/21 04:09:57;;;;;;;0.10;0.10;;;;;;;;;;5037019;28;20458;-85
2022/06/21 04:12:40;;;;;;;0.30;0.30;;;;;;;;;;5051521;28;20044;-85
2022/06/21 04:15:10;;;;;;;0.20;0.20;;;;;;;;;;5055821;28;20052;-84
2022/06/21 04:17:48;;;;;;;0.10;0.10;;;;;;;;;;5040210;28;20052;-85
2022/06/21 04:20:14;;;;;;;0.20;0.20;;;;;;;;;;5040837;28;20048;-84
2022/06/21 04:22:50;;;;;;;0.17;0.17;;;;;;;;;;5055384;28;20040;-85
2022/06/21 04:25:20;;;;;;;0.10;0.10;;;;;;;;;;5036019;28;20044;-84
2022/06/21 04:28:05;;;;;;;0.20;0.20;;;;;;;;;;5035623;28;20045;-84
2022/06/21 04:30:43;;;;;;;0.10;0.10;;;;;;;;;;5041218;28;20542;-83
2022/06/21 04:33:13;;;;;;;0.20;0.20;;;;;;;;;;5037638;28;20044;-85
2022/06/21 04:35:41;;;;;;;0.10;0.10;;;;;;;;;;5032664;28;20041;-85
2022/06/21 04:38:10;;;;;;;0.20;0.20;;;;;;;;;;5033216;28;20060;-85
2022/06/21 04:40:45;;;;;;;0.20;0.20;;;;;;;;;;5036609;28;20041;-83
2022/06/21 04:43:11;;;;;;;;;;;;;;;;;;5053297;28;20055;-84
2022/06/21 04:45:37;;;;;;;0.20;0.20;;;;;;;;;;5036843;28;19917;-87
2022/06/21 04:48:22;;;;;;;0.25;0.25;;;;;;;;;;5048264;28;20033;-85
2022/06/21 04:50:50;;;;;;;0.13;0.13;;;;;;;;;;5026424;28;20099;-86
2022/06/21 04:53:26;;;;;;;0.20;0.20;;;;;;;;;;5041241;28;20132;-85
2022/06/21 04:56:05;;;;;;;0.20;0.20;;;;;;;;;;5041142;28;20405;-85
2022/06/21 04:58:31;;;;;;;0.20;0.20;;;;;;;;;;5025315;28;20032;-87
2022/06/21 05:00:58;;;;;;;0.20;0.20;;;;;;;;;;5041321;28;20404;-84
2022/06/21 05:03:31;;;;;;;0.10;0.10;;;;;;;;;;5034467;28;20040;-85
2022/06/21 05:05:57;;;;;;;0.20;0.20;;;;;;;;;;5053914;28;20134;-85
2022/06/21 05:08:24;;;;;;;0.10;0.10;;;;;;;;;;5041114;28;20040;-85
2022/06/21 05:10:54;;;;;;;0.20;0.20;;;;;;;;;;5041654;28;20036;-84
2022/06/21 05:13:34;;;;;;;0.10;0.10;;;;;;;;;;5041047;28;20048;-86
2022/06/21 05:16:02;;;;;;;0.10;0.10;;;;;;;;;;5040933;28;20036;-84
2022/06/21 05:18:36;;;;;;;0.20;0.20;;;;;;;;;;5029421;28;20033;-85
2022/06/21 05:21:03;;;;;;;0.10;0.10;;;;;;;;;;5038442;28;20099;-86
2022/06/21 05:23:31;;;;;;;0.10;0.10;;;;;;;;;;5052967;28;20122;-85
2022/06/21 05:25:59;;;;;;;0.10;0.10;;;;;;;;;;5040092;28;20054;-85
2022/06/21 05:28:31;;;;;;;0.10;0.10;;;;;;;;;;5056711;28;20047;-85
2022/06/21 05:31:00;;;;;;;0.15;0.15;;;;;;;;;;5032680;28;20450;-86
2022/06/21 05:33:33;;;;;;;0.10;0.10;;;;;;;;;;5029393;28;20041;-86
2022/06/21 05:36:00;;;;;;;0.10;0.10;;;;;;;;;;5029561;28;20047;-85
2022/06/21 05:38:31;;;;;;;0.10;0.10;;;;;;;;;;5036345;28;20032;-84
2022/06/21 05:41:29;;;;;;;0.10;0.10;;;;;;;;;;5033957;28;20040;-85
2022/06/21 05:43:58;;;;;;;0.20;0.20;;;;;;;;;;5036065;28;20497;-86
2022/06/21 05:46:27;;;;;;;0.00;0.00;;;;;;;;;;5040517;28;20044;-83
2022/06/21 05:48:54;;;;;;;0.05;0.05;;;;;;;;;;5044451;28;20071;-86
2022/06/21 05:51:25;;;;;;;0.20;0.20;;;;;;;;;;5061342;28;20047;-85
2022/06/21 05:53:53;;;;;;;0.20;0.20;;;;;;;;;;5056963;28;20037;-83
2022/06/21 05:56:22;;;;;;;0.10;0.10;;;;;;;;;;5042180;28;20037;-84
2022/06/21 05:58:57;;;;;;;0.20;0.20;;;;;;;;;;5033216;28;20083;-84
2022/06/21 06:01:23;;;;;;;0.00;0.00;;;;;;;;;;5044285;28;20513;-85
2022/06/21 06:04:05;;;;;;;0.10;0.10;;;;;;;;;;5060124;28;20059;-85
2022/06/21 06:06:35;;;;;;;0.03;0.03;;;;;;;;;;5049542;28;20049;-85
2022/06/21 06:09:03;;;;;;;0.00;0.00;;;;;;;;;;5060500;28;20052;-85
2022/06/21 06:14:18;;;;;;;0.20;0.20;;;;;;;;;;5060566;28;20619;-86
2022/06/21 06:16:47;;;;;;;0.10;0.10;;;;;;;;;;5043114;28;20043;-84
2022/06/21 06:19:19;;;;;;;0.10;0.10;;;;;;;;;;5060350;28;20035;-84
2022/06/21 06:22:05;;;;;;;0.10;0.10;;;;;;;;;;5045368;28;20077;-85
2022/06/21 06:24:35;;;;;;;0.20;0.20;;;;;;;;;;5047421;28;20032;-85
2022/06/21 06:27:01;;;;;;;0.10;0.10;;;;;;;;;;5059681;28;20514;-84
2022/06/21 06:29:47;;;;;;;0.10;0.10;;;;;;;;;;5033498;28;20044;-83
2022/06/21 06:32:18;;;;;;;0.20;0.20;;;;;;;;;;5042137;28;20048;-85
2022/06/21 06:34:46;;;;;;;0.10;0.10;;;;;;;;;;5052915;28;20123;-85
2022/06/21 06:37:22;;;;;;;0.10;0.10;;;;;;;;;;5043697;28;20032;-83
2022/06/21 06:39:49;;;;;;;0.10;0.10;;;;;;;;;;5043910;28;20537;-85
2022/06/21 06:42:17;;;;;;;0.13;0.13;;;;;;;;;;5043135;28;20078;-85
2022/06/21 06:44:46;;;;;;;0.10;0.10;;;;;;;;;;5032436;28;20485;-85
2022/06/21 06:47:15;;;;;;;0.10;0.10;;;;;;;;;;5042280;28;20067;-87
2022/06/21 06:49:41;;;;;;;0.10;0.10;;;;;;;;;;5043216;28;20080;-86
2022/06/21 06:52:12;;;;;;;0.10;0.10;;;;;;;;;;5059589;28;20040;-85
2022/06/21 06:54:38;;;;;;;0.10;0.10;;;;;;;;;;5033726;28;20501;-86
2022/06/21 06:57:09;;;;;;;0.20;0.20;;;;;;;;;;5033723;28;20043;-87
2022/06/21 06:59:35;;;;;;;0.10;0.10;;;;;;;;;;5045707;28;20557;-89
2022/06/21 07:02:04;;;;;;;0.10;0.10;;;;;;;;;;5025106;28;20037;-86
2022/06/21 07:04:36;;;;;;;0.05;0.05;;;;;;;;;;5054337;28;20048;-87
2022/06/21 07:07:04;;;;;;;0.08;0.08;;;;;;;;;;5037163;28;20044;-87
2022/06/21 07:09:33;;;;;;;0.10;0.10;;;;;;;;;;5042247;28;20082;-88
2022/06/21 07:12:18;;;;;;;0.00;0.00;;;;;;;;;;5025221;28;20051;-88
2022/06/21 07:14:45;;;;;;;0.10;0.10;;;;;;;;;;5059530;28;20036;-88
2022/06/21 07:17:21;;;;;;;0.10;0.10;;;;;;;;;;5043835;28;20036;-88
2022/06/21 07:19:48;;;;;;;0.20;0.20;;;;;;;;;;5041225;28;20504;-87
2022/06/21 07:22:16;;;;;;;0.17;0.17;;;;;;;;;;5060624;28;20123;-87
2022/06/21 07:24:45;;;;;;;0.10;0.10;;;;;;;;;;5061476;28;20040;-88
2022/06/21 07:27:14;;;;;;;0.10;0.10;;;;;;;;;;5061282;28;20135;-87
2022/06/21 07:29:44;;;;;;;0.10;0.10;;;;;;;;;;5044627;28;20047;-87
2022/06/21 07:32:10;;;;;;;0.10;0.10;;;;;;;;;;5060139;28;20077;-88
2022/06/21 07:34:38;;;;;;;0.00;0.00;;;;;;;;;;5053858;28;20052;-88
2022/06/21 07:37:11;;;;;;;0.10;0.10;;;;;;;;;;5023410;28;20534;-88
2022/06/21 07:39:46;;;;;;;0.10;0.10;;;;;;;;;;5071814;28;20047;-86
2022/06/21 07:42:15;;;;;;;0.03;0.03;;;;;;;;;;5060992;28;20166;-86
2022/06/21 07:44:50;;;;;;;0.10;0.10;;;;;;;;;;5039624;28;20044;-87
2022/06/21 07:47:21;;;;;;;0.10;0.10;;;;;;;;;;5039197;28;20063;-87
2022/06/21 07:49:52;;;;;;;0.00;0.00;;;;;;;;;;5045276;28;20029;-87
2022/06/21 07:52:28;;;;;;;0.00;0.00;;;;;;;;;;5034460;28;20556;-87
2022/06/21 07:55:03;;;;;;;0.00;0.00;;;;;;;;;;5047350;28;20052;-84
2022/06/21 07:57:32;;;;;;;0.00;0.00;;;;;;;;;;5060172;28;20028;-86
2022/06/21 08:00:07;;;;;;;0.20;0.20;;;;;;;;;;5031466;28;20041;-87
2022/06/21 08:08:13;;;;;;;0.10;0.10;;;;;;;;;;5058033;28;20041;-86
2022/06/21 08:10:42;;;;;;;0.10;0.10;;;;;;;;;;5041172;28;20043;-86
2022/06/21 08:13:10;;;;;;;0.00;0.00;;;;;;;;;;5041147;28;20033;-87
2022/06/21 08:15:43;;;;;;;0.00;0.00;;;;;;;;;;5043757;28;20541;-90
2022/06/21 08:18:31;;;;;;;0.10;0.10;;;;;;;;;;5030042;28;20133;-87
2022/06/21 08:21:08;;;;;;;0.15;0.15;;;;;;;;;;5038454;28;20047;-88
2022/06/21 08:23:47;;;;;;;0.03;0.03;;;;;;;;;;5043355;28;20052;-88
2022/06/21 08:26:16;;;;;;;0.00;0.00;;;;;;;;;;5034362;28;20547;-88
2022/06/21 08:28:45;;;;;;;0.10;0.10;;;;;;;;;;5042419;28;20047;-86
2022/06/21 08:31:13;;;;;;;0.08;0.08;;;;;;;;;;5044264;28;20070;-86
2022/06/21 08:33:44;;;;;;;0.00;0.00;;;;;;;;;;5043747;28;20036;-88
2022/06/21 08:36:30;;;;;;;0.10;0.10;;;;;;;;;;5032415;28;20080;-87
2022/06/21 08:39:16;;;;;;;0.10;0.10;;;;;;;;;;5047323;28;20044;-87
2022/06/21 08:41:52;;;;;;;0.10;0.10;;;;;;;;;;5057277;28;20055;-87
2022/06/21 08:44:18;;;;;;;0.10;0.10;;;;;;;;;;5032493;28;20054;-87
2022/06/21 08:47:03;;;;;;;0.10;0.10;;;;;;;;;;5036474;28;20045;-88
2022/06/21 08:49:30;;;;;;;0.00;0.00;;;;;;;;;;5041242;28;20583;-88
2022/06/21 08:52:11;;;;;;;0.00;0.00;;;;;;;;;;5040199;28;20064;-88
2022/06/21 08:55:04;;;;;;;0.10;0.10;;;;;;;;;;5037442;28;20413;-88
2022/06/21 08:57:39;;;;;;;0.10;0.10;;;;;;;;;;5008488;28;20060;-86
2022/06/21 09:00:05;;;;;;;0.00;0.00;;;;;;;;;;5035158;28;20123;-86
2022/06/21 09:02:34;;;;;;;0.10;0.10;;;;;;;;;;5043783;28;20413;-87
2022/06/21 09:05:06;;;;;;;0.10;0.10;;;;;;;;;;5043963;28;20040;-87
2022/06/21 09:07:35;;;;;;;0.10;0.10;;;;;;;;;;5052839;28;20085;-88
2022/06/21 09:10:20;;;;;;;0.10;0.10;;;;;;;;;;5044564;28;20041;-91
2022/06/21 09:12:59;;;;;;;0.08;0.08;;;;;;;;;;5058854;28;20044;-93
2022/06/21 09:15:42;;;;;;;0.10;0.10;;;;;;;;;;5063848;28;20555;-90
2022/06/21 09:18:13;;;;;;;0.00;0.00;;;;;;;;;;5046612;28;20144;-93
2022/06/21 09:20:59;;;;;;;0.10;0.10;;;;;;;;;;5042619;28;20040;-94
2022/06/21 09:23:44;;;;;;;0.00;0.00;;;;;;;;;;5047252;28;20036;-92
2022/06/21 09:26:17;;;;;;;0.00;0.00;;;;;;;;;;5040736;28;20132;-92
2022/06/21 09:28:52;;;;;;;0.00;0.00;;;;;;;;;;5048065;28;20040;-93
2022/06/21 09:31:40;;;;;;;0.00;0.00;;;;;;;;;;5048236;28;20048;-94
2022/06/21 09:34:26;;;;;;;0.08;0.08;;;;;;;;;;5045924;28;20056;-96
2022/06/21 09:37:01;;;;;;;0.00;0.00;;;;;;;;;;5047788;28;20040;-91
2022/06/21 09:39:34;;;;;;;0.00;0.00;;;;;;;;;;5042303;28;20083;-91
2022/06/21 09:42:29;;;;;;;0.10;0.10;;;;;;;;;;5064885;28;20067;-93
2022/06/21 09:45:02;;;;;;;0.10;0.10;;;;;;;;;;5063186;28;20040;-93
2022/06/21 09:47:50;;;;;;;0.00;0.00;;;;;;;;;;5045319;28;20036;-95
2022/06/21 09:50:16;;;;;;;0.05;0.05;;;;;;;;;;5046379;28;20040;-95
2022/06/21 09:52:42;;;;;;;0.03;0.03;;;;;;;;;;5046225;28;20033;-92
2022/06/21 09:55:11;;;;;;;0.15;0.15;;;;;;;;;;5045568;28;20032;-94
2022/06/21 09:57:43;;;;;;;0.05;0.05;;;;;;;;;;5037950;28;20028;-93
2022/06/21 10:00:16;;;;;;;0.10;0.10;;;;;;;;;;5051110;28;20459;-96
2022/06/21 10:02:48;;;;;;;0.10;0.10;;;;;;;;;;5048327;28;20040;-96
2022/06/21 10:05:20;;;;;;;0.00;0.00;;;;;;;;;;5058524;28;20040;-93
2022/06/21 10:08:05;;;;;;;0.00;0.00;;;;;;;;;;5026765;28;20045;-92
2022/06/21 10:10:32;;;;;;;0.10;0.10;;;;;;;;;;5065807;28;20111;-94
2022/06/21 10:13:08;;;;;;;0.10;0.10;;;;;;;;;;5060606;28;20045;-94
2022/06/21 10:15:58;;;;;;;0.00;0.00;;;;;;;;;;5041383;28;20028;-93
2022/06/21 10:18:24;;;;;;;0.03;0.03;;;;;;;;;;5034650;28;20059;-95
2022/06/21 10:21:01;;;;;;;0.00;0.00;;;;;;;;;;5034339;28;20418;-94
2022/06/21 10:23:48;;;;;;;0.00;0.00;;;;;;;;;;5037842;28;20040;-95
2022/06/21 10:26:33;;;;;;;0.10;0.10;;;;;;;;;;5050685;28;20037;-96
2022/06/21 10:29:00;;;;;;;0.00;0.00;;;;;;;;;;5046755;28;20063;-93
2022/06/21 10:31:44;;;;;;;0.10;0.10;;;;;;;;;;5084489;28;20043;-94
2022/06/21 10:34:10;;;;;;;0.00;0.00;;;;;;;;;;5052618;28;20044;-92
2022/06/21 10:36:45;;;;;;;0.17;0.17;;;;;;;;;;5055129;28;20037;-93
2022/06/21 10:39:11;;;;;;;0.10;0.10;;;;;;;;;;5050564;28;20561;-95
2022/06/21 10:41:41;;;;;;;0.05;0.05;;;;;;;;;;5057791;28;20033;-95
2022/06/21 10:44:26;;;;;;;0.10;0.10;;;;;;;;;;5051956;28;20079;-95
2022/06/21 10:46:55;;;;;;;0.15;0.15;;;;;;;;;;5055312;28;20040;-94
2022/06/21 10:49:35;;;;;;;0.05;0.05;;;;;;;;;;5066990;28;20066;-91
2022/06/21 10:52:17;;;;;;;0.10;0.10;;;;;;;;;;5054845;28;20545;-95
2022/06/21 10:54:56;;;;;;;0.10;0.10;;;;;;;;;;5048295;28;20050;-94
2022/06/21 10:57:41;;;;;;;0.00;0.00;;;;;;;;;;5038853;28;20069;-94
2022/06/21 11:03:11;;;;;;;0.10;0.10;;;;;;;;;;5069208;28;20105;-94
2022/06/21 11:05:53;;;;;;;0.05;0.05;;;;;;;;;;5070338;28;20049;-93
2022/06/21 11:08:37;;;;;;;0.00;0.00;;;;;;;;;;5049052;28;20088;-95
2022/06/21 11:14:09;;;;;;;0.00;0.00;;;;;;;;;;5065839;28;20055;-93
2022/06/21 11:17:08;;;;;;;0.05;0.05;;;;;;;;;;5053022;28;20378;-94
2022/06/21 11:19:43;;;;;;;0.10;0.10;;;;;;;;;;5047997;28;20068;-94
2022/06/21 11:22:15;;;;;;;0.00;0.00;;;;;;;;;;5050230;28;20033;-94
2022/06/21 11:24:40;;;;;;;0.00;0.00;;;;;;;;;;5066985;28;20382;-92
2022/06/21 11:27:13;;;;;;;0.10;0.10;;;;;;;;;;5046531;28;20045;-92
2022/06/21 11:29:51;;;;;;;0.10;0.10;;;;;;;;;;5040736;28;20045;-92
2022/06/21 11:32:36;;;;;;;0.10;0.10;;;;;;;;;;5069470;28;20044;-91
2022/06/21 11:35:24;;;;;;;0.05;0.05;;;;;;;;;;5056515;28;20453;-89
2022/06/21 11:37:54;;;;;;;0.03;0.03;;;;;;;;;;5008957;28;20136;-93
2022/06/21 11:40:29;;;;;;;0.10;0.10;;;;;;;;;;5047638;28;20047;-92
2022/06/21 11:43:09;;;;;;;0.00;0.00;;;;;;;;;;5049321;28;20082;-87
2022/06/21 11:46:05;;;;;;;;;;;;;;;;;;;;;
2022/06/21 11:48:45;;;;;;;0.10;0.10;;;;;;;;;;5056828;28;20049;-90
2022/06/21 11:55:02;;;;;;;0.00;0.00;;;;;;;;;;5080245;28;20063;-93
2022/06/21 11:57:47;;;;;;;0.08;0.08;;;;;;;;;;5054526;28;20123;-93
2022/06/21 12:00:22;;;;;;;0.00;0.00;;;;;;;;;;5053268;28;20093;-96
2022/06/21 12:03:04;;;;;;;0.13;0.13;;;;;;;;;;5045354;28;20053;-96
2022/06/21 12:05:53;;;;;;;0.00;0.00;;;;;;;;;;5024362;28;20345;-94
2022/06/21 12:08:21;;;;;;;0.00;0.00;;;;;;;;;;5034327;28;20037;-94
2022/06/21 12:11:08;;;;;;;0.00;0.00;;;;;;;;;;5025962;28;20055;-94
2022/06/21 12:13:55;;;;;;;0.10;0.10;;;;;;;;;;5046169;28;20079;-93
2022/06/21 12:16:58;;;;;;;0.00;0.00;;;;;;;;;;5060868;28;20567;-93
2022/06/21 12:19:29;;;;;;;0.00;0.00;;;;;;;;;;5049552;28;20100;-93
2022/06/21 12:22:14;;;;;;;0.10;0.10;;;;;;;;;;5047782;28;20044;-95
2022/06/21 12:24:40;;;;;;;0.00;0.00;;;;;;;;;;5044035;28;20054;-91
2022/06/21 12:27:09;;;;;;;0.10;0.10;;;;;;;;;;5049547;28;20066;-91
2022/06/21 12:29:37;;;;;;;0.00;0.00;;;;;;;;;;5047440;28;20496;-91
2022/06/21 12:35:31;;;;;;;0.00;0.00;;;;;;;;;;5056234;28;20056;-91
2022/06/21 12:38:02;;;;;;;0.00;0.00;;;;;;;;;;5041450;28;20093;-94
2022/06/21 12:40:37;;;;;;;0.10;0.10;;;;;;;;;;5050308;28;20121;-92
2022/06/21 12:43:23;;;;;;;0.00;0.00;;;;;;;;;;5037764;28;20033;-85
2022/06/21 12:45:53;;;;;;;0.10;0.10;;;;;;;;;;5042446;28;20559;-86
2022/06/21 12:48:41;;;;;;;0.00;0.00;;;;;;;;;;5044420;28;20036;-89
2022/06/21 12:51:39;;;;;;;0.00;0.00;;;;;;;;;;5041828;28;20048;-91
2022/06/21 12:54:11;;;;;;;0.00;0.00;;;;;;;;;;5003673;28;20056;-92
2022/06/21 12:56:50;;;;;;;0.10;0.10;;;;;;;;;;5053339;28;20044;-90
2022/06/21 12:59:26;;;;;;;0.10;0.10;;;;;;;;;;5042749;28;20048;-93
2022/06/21 13:02:00;;;;;;;0.00;0.00;;;;;;;;;;5042948;28;20167;-93
2022/06/21 13:04:37;;;;;;;0.00;0.00;;;;;;;;;;5062841;28;20062;-92
2022/06/21 13:07:35;;;;;;;0.00;0.00;;;;;;;;;;5046485;28;20048;-94
2022/06/21 13:10:16;;;;;;;0.00;0.00;;;;;;;;;;5034167;28;20769;-94
2022/06/21 13:12:49;;;;;;;0.00;0.00;;;;;;;;;;5044022;28;20075;-96
2022/06/21 13:15:19;;;;;;;0.00;0.00;;;;;;;;;;5036155;28;20029;-91
2022/06/21 13:18:04;;;;;;;0.00;0.00;;;;;;;;;;5044450;28;20405;-95
2022/06/21 13:20:49;;;;;;;0.10;0.10;;;;;;;;;;5045479;28;20044;-95
2022/06/21 13:23:15;;;;;;;0.10;0.10;;;;;;;;;;5043860;28;20079;-95
2022/06/21 13:25:44;;;;;;;0.00;0.00;;;;;;;;;;5038009;28;20036;-95
2022/06/21 13:28:24;;;;;;;0.00;0.00;;;;;;;;;;5046271;28;20051;-94
2022/06/21 13:31:13;;;;;;;0.00;0.00;;;;;;;;;;5045024;28;20040;-90
2022/06/21 13:33:39;;;;;;;0.00;0.00;;;;;;;;;;5031456;28;20040;-92
2022/06/21 13:36:19;;;;;;;0.00;0.00;;;;;;;;;;5041570;28;20047;-96
2022/06/21 13:39:11;;;;;;;0.00;0.00;;;;;;;;;;5035634;28;20086;-94
2022/06/21 13:44:45;;;;;;;0.00;0.00;;;;;;;;;;5059532;28;20065;-93
2022/06/21 13:47:31;;;;;;;0.10;0.10;;;;;;;;;;5043799;28;20062;-92
2022/06/21 13:50:25;;;;;;;0.10;0.10;;;;;;;;;;5042878;28;20040;-95
2022/06/21 13:52:55;;;;;;;0.00;0.00;;;;;;;;;;5059145;28;20056;-91
2022/06/21 13:55:26;;;;;;;0.00;0.00;;;;;;;;;;5056679;28;20406;-95
2022/06/21 14:01:29;;;;;;;0.00;0.00;;;;;;;;;;5078867;28;20035;-91
2022/06/21 14:04:13;;;;;;;0.00;0.00;;;;;;;;;;5045400;28;20044;-92
2022/06/21 14:06:46;;;;;;;0.00;0.00;;;;;;;;;;5022982;28;20406;-94
2022/06/21 14:09:19;;;;;;;0.10;0.10;;;;;;;;;;5040763;28;20170;-96
2022/06/21 14:11:49;;;;;;;0.10;0.10;;;;;;;;;;5033106;28;20046;-93
2022/06/21 14:14:36;;;;;;;0.00;0.00;;;;;;;;;;5063140;28;20490;-91
2022/06/21 14:17:22;;;;;;;0.00;0.00;;;;;;;;;;5026073;28;20073;-95
2022/06/21 14:19:54;;;;;;;0.00;0.00;;;;;;;;;;5057522;28;20032;-92
2022/06/21 14:22:23;;;;;;;0.00;0.00;;;;;;;;;;5044832;28;20086;-88
2022/06/21 14:24:58;;;;;;;0.00;0.00;;;;;;;;;;5045359;28;20390;-95
2022/06/21 14:27:47;;;;;;;0.00;0.00;;;;;;;;;;5042696;28;20052;-94
2022/06/21 14:30:18;;;;;;;0.10;0.10;;;;;;;;;;5059270;28;20044;-92
2022/06/21 14:32:51;;;;;;;0.00;0.00;;;;;;;;;;5039762;28;20047;-94
2022/06/21 14:35:32;;;;;;;0.00;0.00;;;;;;;;;;5042806;28;20033;-90
2022/06/21 14:38:29;;;;;;;0.00;0.00;;;;;;;;;;5060659;28;20124;-92
2022/06/21 14:41:05;;;;;;;0.00;0.00;;;;;;;;;;5043071;28;20866;-90
2022/06/21 14:43:31;;;;;;;0.00;0.00;;;;;;;;;;5040620;28;20041;-94
2022/06/21 14:46:09;;;;;;;0.00;0.00;;;;;;;;;;5035825;28;20043;-92
2022/06/21 14:48:56;;;;;;;0.00;0.00;;;;;;;;;;5043585;28;20080;-92
2022/06/21 14:51:25;;;;;;;0.00;0.00;;;;;;;;;;5044188;28;20040;-93
2022/06/21 14:53:59;;;;;;;0.20;0.20;;;;;;;;;;5039159;28;20090;-96
2022/06/21 14:56:31;;;;;;;0.10;0.10;;;;;;;;;;5040040;28;20093;-94
2022/06/21 14:59:06;;;;;;;0.03;0.03;;;;;;;;;;5040982;28;20040;-91
2022/06/21 15:01:34;;;;;;;0.00;0.00;;;;;;;;;;5040514;28;20104;-95
2022/06/21 15:04:11;;;;;;;0.00;0.00;;;;;;;;;;5058858;28;20043;-91
2022/06/21 15:06:41;;;;;;;0.00;0.00;;;;;;;;;;5040814;28;20032;-91
2022/06/21 15:09:31;;;;;;;0.05;0.05;;;;;;;;;;5066587;28;20044;-91
2022/06/21 15:12:00;;;;;;;0.00;0.00;;;;;;;;;;5032981;28;20093;-95
2022/06/21 15:14:46;;;;;;;0.00;0.00;;;;;;;;;;5027737;28;20045;-90
2022/06/21 15:17:22;;;;;;;0.03;0.03;;;;;;;;;;5045604;28;20036;-90
2022/06/21 15:19:54;;;;;;;0.00;0.00;;;;;;;;;;5040363;28;20045;-88
2022/06/21 15:22:29;;;;;;;0.00;0.00;;;;;;;;;;5049248;28;20040;-90
2022/06/21 15:25:01;;;;;;;0.00;0.00;;;;;;;;;;5039060;28;20040;-91
2022/06/21 15:27:28;;;;;;;0.10;0.10;;;;;;;;;;5039070;28;20047;-91
2022/06/21 15:29:56;;;;;;;0.00;0.00;;;;;;;;;;5044384;28;20406;-93
2022/06/21 15:32:28;;;;;;;0.08;0.08;;;;;;;;;;5032164;28;20041;-88
2022/06/21 15:34:56;;;;;;;0.00;0.00;;;;;;;;;;5040473;28;20044;-87
2022/06/21 15:37:34;;;;;;;0.00;0.00;;;;;;;;;;5052219;28;20051;-91
2022/06/21 15:40:25;;;;;;;0.10;0.10;;;;;;;;;;5047507;28;20044;-94
2022/06/21 15:42:56;;;;;;;0.00;0.00;;;;;;;;;;5035414;28;20079;-92
2022/06/21 15:45:36;;;;;;;0.10;0.10;;;;;;;;;;5055946;28;20121;-91
2022/06/21 15:51:08;;;;;;;0.00;0.00;;;;;;;;;;5066606;28;20040;-95
2022/06/21 15:53:54;;;;;;;0.00;0.00;;;;;;;;;;5078135;28;20037;-96
2022/06/21 15:56:31;;;;;;;0.00;0.00;;;;;;;;;;5051137;28;20101;-91
2022/06/21 15:59:13;;;;;;;0.10;0.10;;;;;;;;;;5049082;28;20066;-91
2022/06/21 16:01:58;;;;;;;0.00;0.00;;;;;;;;;;5045291;28;20172;-92
2022/06/21 16:04:27;;;;;;;0.00;0.00;;;;;;;;;;5025837;28;20052;-94